createdAt,value
2019-04-11T00:02:47.020Z,56.50
2019-04-11T00:06:49.809Z,56.70
2019-04-11T00:10:53.546Z,56.70
2019-04-11T00:14:56.955Z,57.00
2019-04-11T00:19:00.082Z,57.50
2019-04-11T00:23:03.306Z,57.40
2019-04-11T00:27:06.926Z,57.70
2019-04-11T00:31:09.996Z,57.80
2019-04-11T00:35:15.427Z,57.80
2019-04-11T00:39:19.494Z,57.80
2019-04-11T00:43:31.698Z,58.00
2019-04-11T00:47:27.668Z,58.00
2019-04-11T00:51:32.505Z,58.10
2019-04-11T00:55:35.737Z,58.30
2019-04-11T00:59:42.615Z,58.30
2019-04-11T01:03:47.424Z,58.40
2019-04-11T01:07:51.308Z,58.50
2019-04-11T01:11:56.381Z,58.90
2019-04-11T01:16:01.487Z,59.00
2019-04-11T01:20:06.936Z,59.20
2019-04-11T01:24:11.287Z,59.20
2019-04-11T01:28:14.993Z,59.20
2019-04-11T01:32:18.282Z,59.30
2019-04-11T01:36:21.352Z,59.60
2019-04-11T01:40:25.557Z,60.10
2019-04-11T01:44:30.403Z,59.70
2019-04-11T01:48:41.730Z,59.90
2019-04-11T01:52:45.046Z,59.60
2019-04-11T01:56:48.106Z,60.00
2019-04-11T02:00:56.768Z,60.30
2019-04-11T02:05:02.838Z,60.30
2019-04-11T02:09:09.852Z,60.50
2019-04-11T02:13:13.104Z,60.50
2019-04-11T02:17:16.790Z,60.70
2019-04-11T02:21:20.026Z,60.50
2019-04-11T02:25:28.246Z,60.80
2019-04-11T02:29:33.287Z,60.70
2019-04-11T02:33:37.133Z,60.70
2019-04-11T02:37:42.056Z,61.00
2019-04-11T02:41:46.924Z,61.20
2019-04-11T02:45:58.082Z,61.20
2019-04-11T02:49:57.269Z,61.30
2019-04-11T02:54:02.175Z,61.30
2019-04-11T02:58:07.606Z,61.30
2019-04-11T03:02:12.995Z,61.50
2019-04-11T03:06:17.571Z,61.70
2019-04-11T03:10:21.434Z,61.80
2019-04-11T03:14:25.179Z,62.20
2019-04-11T03:18:51.027Z,62.30
2019-04-11T03:22:34.487Z,62.50
2019-04-11T03:26:38.455Z,62.50
2019-04-11T03:31:06.889Z,62.70
2019-04-11T03:39:16.919Z,63.20
2019-04-11T03:43:09.338Z,63.20
2019-04-11T03:47:16.682Z,63.30
2019-04-11T03:51:10.947Z,63.70
2019-04-11T03:55:15.219Z,63.70
2019-04-11T03:59:21.181Z,63.90
2019-04-11T04:03:26.581Z,63.60
2019-04-11T04:07:29.872Z,64.00
2019-04-11T04:11:34.662Z,63.50
2019-04-11T04:16:06.312Z,63.80
2019-04-11T04:20:19.329Z,64.70
2019-04-11T04:24:27.464Z,64.50
2019-04-11T04:28:29.475Z,64.60
2019-04-11T04:32:36.069Z,64.60
2019-04-11T04:36:40.287Z,65.20
2019-04-11T04:41:00.699Z,64.80
2019-04-11T04:44:51.119Z,64.90
2019-04-11T04:48:55.800Z,64.80
2019-04-11T04:53:00.946Z,64.70
2019-04-11T04:57:05.015Z,64.70
2019-04-11T05:01:09.936Z,64.50
2019-04-11T05:05:13.726Z,65.30
2019-04-11T05:09:17.910Z,64.20
2019-04-11T05:13:21.657Z,64.00
2019-04-11T05:17:26.276Z,64.10
2019-04-11T05:21:30.167Z,63.60
2019-04-11T05:25:33.348Z,63.00
2019-04-11T05:29:37.537Z,63.00
2019-04-11T05:33:43.466Z,62.50
2019-04-11T05:37:47.145Z,62.20
2019-04-11T05:41:51.376Z,62.30
2019-04-11T05:45:56.298Z,61.70
2019-04-11T05:50:18.371Z,60.70
2019-04-11T05:54:21.451Z,60.30
2019-04-11T05:58:26.531Z,59.80
2019-04-11T06:02:35.325Z,59.00
2019-04-11T06:06:47.210Z,59.40
2019-04-11T06:10:56.755Z,59.30
2019-04-11T06:15:02.090Z,59.30
2019-04-11T06:19:24.946Z,59.00
2019-04-11T06:23:45.693Z,58.10
2019-04-11T06:27:50.851Z,57.80
2019-04-11T06:32:13.854Z,57.50
2019-04-11T06:36:20.983Z,57.20
2019-04-11T06:40:27.370Z,56.30
2019-04-11T06:44:38.196Z,55.50
2019-04-11T06:48:49.644Z,55.70
2019-04-11T06:52:53.142Z,55.60
2019-04-11T06:56:57.295Z,53.80
2019-04-11T07:01:03.521Z,53.50
2019-04-11T07:05:09.173Z,52.50
2019-04-11T07:09:27.283Z,50.80
2019-04-11T07:13:33.420Z,51.50
2019-04-11T07:17:54.793Z,50.80
2019-04-11T07:21:58.189Z,49.00
2019-04-11T07:26:06.047Z,48.60
2019-04-11T07:30:11.432Z,47.30
2019-04-11T07:34:19.528Z,46.00
2019-04-11T07:38:25.515Z,45.70
2019-04-11T07:42:47.114Z,44.30
2019-04-11T07:46:55.933Z,45.50
2019-04-11T07:51:01.961Z,44.70
2019-04-11T07:55:06.688Z,44.40
2019-04-11T07:59:20.355Z,44.40
2019-04-11T08:03:27.644Z,42.80
2019-04-11T08:07:42.530Z,39.70
2019-04-11T08:11:47.804Z,38.50
2019-04-11T08:16:10.542Z,37.10
2019-04-11T08:20:25.683Z,36.00
2019-04-11T08:24:42.924Z,34.90
2019-04-11T08:28:45.947Z,34.10
2019-04-11T08:32:56.730Z,32.20
2019-04-11T08:37:05.406Z,32.30
2019-04-11T08:41:25.729Z,30.00
2019-04-11T08:45:31.936Z,30.00
2019-04-11T08:49:37.594Z,30.80
2019-04-11T08:53:45.518Z,31.70
2019-04-11T08:57:50.526Z,29.20
2019-04-11T09:01:53.985Z,29.30
2019-04-11T09:06:02.802Z,28.70
2019-04-11T09:10:24.774Z,28.60
2019-04-11T09:14:46.508Z,27.90
2019-04-11T09:18:52.448Z,27.30
2019-04-11T09:22:57.539Z,27.70
2019-04-11T09:27:06.503Z,27.00
2019-04-11T09:31:29.681Z,26.80
2019-04-11T09:35:35.314Z,26.30
2019-04-11T09:39:56.816Z,25.20
2019-04-11T09:44:02.469Z,25.20
2019-04-11T09:48:24.782Z,24.90
2019-04-11T09:52:31.072Z,24.30
2019-04-11T09:56:53.981Z,24.50
2019-04-11T10:01:16.097Z,25.50
2019-04-11T10:05:24.443Z,26.50
2019-04-11T10:09:30.375Z,25.10
2019-04-11T10:13:53.555Z,25.40
2019-04-11T10:18:25.212Z,23.90
2019-04-11T10:22:32.020Z,24.70
2019-04-11T10:26:38.193Z,24.30
2019-04-11T10:31:00.270Z,24.70
2019-04-11T10:35:22.627Z,24.50
2019-04-11T10:39:33.586Z,25.40
2019-04-11T10:43:36.853Z,25.10
2019-04-11T10:47:40.899Z,25.70
2019-04-11T10:51:46.013Z,24.70
2019-04-11T10:55:51.711Z,25.60
2019-04-11T10:59:54.947Z,25.70
2019-04-11T11:04:15.825Z,25.10
2019-04-11T11:08:27.047Z,26.10
2019-04-11T11:12:32.958Z,26.00
2019-04-11T11:16:41.919Z,26.20
2019-04-11T11:20:50.214Z,25.70
2019-04-11T11:25:11.595Z,27.40
2019-04-11T11:29:18.930Z,25.70
2019-04-11T11:33:25.537Z,26.10
2019-04-11T11:37:35.334Z,27.50
2019-04-11T11:41:56.931Z,25.00
2019-04-11T11:46:17.807Z,25.60
2019-04-11T11:50:24.303Z,25.20
2019-04-11T11:54:29.603Z,24.90
2019-04-11T11:58:53.016Z,24.10
2019-04-11T12:02:56.941Z,24.80
2019-04-11T12:07:03.923Z,24.50
2019-04-11T12:11:10.118Z,26.70
2019-04-11T12:15:25.786Z,26.60
2019-04-11T12:19:43.565Z,26.20
2019-04-11T12:23:48.707Z,25.30
2019-04-11T12:27:47.774Z,27.40
2019-04-11T12:31:52.935Z,26.90
2019-04-11T12:36:01.294Z,34.40
2019-04-11T12:40:22.150Z,27.40
2019-04-11T12:44:29.627Z,27.90
2019-04-11T12:48:34.027Z,30.00
2019-04-11T12:52:41.299Z,28.10
2019-04-11T12:57:03.293Z,27.40
2019-04-11T13:01:11.152Z,26.70
2019-04-11T13:05:18.241Z,27.70
2019-04-11T13:09:23.169Z,28.10
2019-04-11T13:13:30.628Z,28.40
2019-04-11T13:17:35.658Z,29.60
2019-04-11T13:21:40.714Z,28.40
2019-04-11T13:25:45.781Z,28.70
2019-04-11T13:30:02.592Z,27.40
2019-04-11T13:34:07.602Z,27.10
2019-04-11T13:38:18.416Z,27.50
2019-04-11T13:42:28.965Z,27.60
2019-04-11T13:46:33.948Z,28.00
2019-04-11T13:50:37.015Z,27.50
2019-04-11T13:54:42.930Z,27.60
2019-04-11T13:59:04.457Z,27.70
2019-04-11T14:03:26.490Z,27.60
2019-04-11T14:07:29.871Z,27.80
2019-04-11T14:11:33.769Z,28.30
2019-04-11T14:15:40.700Z,29.60
2019-04-11T14:19:55.138Z,28.10
2019-04-11T14:24:16.603Z,29.00
2019-04-11T14:28:21.582Z,29.00
2019-04-11T14:32:26.536Z,29.10
2019-04-11T14:36:37.400Z,28.80
2019-04-11T14:40:42.602Z,29.20
2019-04-11T14:44:46.863Z,29.20
2019-04-11T14:48:51.951Z,29.10
2019-04-11T14:52:56.929Z,29.90
2019-04-11T14:57:03.583Z,29.20
2019-04-11T15:01:09.481Z,29.40
2019-04-11T15:05:17.461Z,29.20
2019-04-11T15:09:40.124Z,29.70
2019-04-11T15:13:48.128Z,29.40
2019-04-11T15:17:51.042Z,29.80
2019-04-11T15:22:13.913Z,29.50
2019-04-11T15:26:30.886Z,29.70
2019-04-11T15:30:54.225Z,30.80
2019-04-11T15:34:57.931Z,30.10
2019-04-11T15:39:06.016Z,30.00
2019-04-11T15:43:27.371Z,29.90
2019-04-11T15:47:30.972Z,29.70
2019-04-11T15:51:35.919Z,30.70
2019-04-11T15:55:57.572Z,30.30
2019-04-11T16:00:15.112Z,30.40
2019-04-11T16:04:28.895Z,31.30
2019-04-11T16:08:33.869Z,30.60
2019-04-11T16:12:38.787Z,30.30
2019-04-11T16:16:49.507Z,30.70
2019-04-11T16:20:54.527Z,31.30
2019-04-11T16:25:02.539Z,31.70
2019-04-11T16:29:10.888Z,31.30
2019-04-11T16:33:15.842Z,31.50
2019-04-11T16:37:19.315Z,31.80
2019-04-11T16:41:40.988Z,31.50
2019-04-11T16:46:02.600Z,31.80
2019-04-11T16:50:05.759Z,32.30
2019-04-11T16:54:09.829Z,33.20
2019-04-11T16:58:17.128Z,32.50
2019-04-11T17:02:21.869Z,33.10
2019-04-11T17:06:29.376Z,33.20
2019-04-11T17:10:46.237Z,33.50
2019-04-11T17:14:49.231Z,32.90
2019-04-11T17:18:52.295Z,33.10
2019-04-11T17:22:55.316Z,32.90
2019-04-11T17:26:58.367Z,33.30
2019-04-11T17:31:02.394Z,33.50
2019-04-11T17:35:05.807Z,34.30
2019-04-11T17:39:09.362Z,34.30
2019-04-11T17:43:13.880Z,34.10
2019-04-11T17:47:17.576Z,34.80
2019-04-11T17:51:20.615Z,35.60
2019-04-11T17:55:24.126Z,35.80
2019-04-11T17:59:28.996Z,36.00
2019-04-11T18:03:33.614Z,35.20
2019-04-11T18:07:36.618Z,36.70
2019-04-11T18:11:39.721Z,37.10
2019-04-11T18:15:42.790Z,36.70
2019-04-11T18:19:45.801Z,37.20
2019-04-11T18:23:50.061Z,37.50
2019-04-11T18:27:53.764Z,37.30
2019-04-11T18:31:56.815Z,37.30
2019-04-11T18:36:02.358Z,37.20
2019-04-11T18:40:10.162Z,37.40
2019-04-11T18:44:11.657Z,37.70
2019-04-11T18:48:14.705Z,37.80
2019-04-11T18:52:19.865Z,38.00
2019-04-11T18:56:22.997Z,39.50
2019-04-11T19:00:26.349Z,39.50
2019-04-11T19:04:32.546Z,39.60
2019-04-11T19:08:35.907Z,40.10
2019-04-11T19:12:39.051Z,40.80
2019-04-11T19:16:43.751Z,40.30
2019-04-11T19:20:49.864Z,40.60
2019-04-11T19:24:52.144Z,41.50
2019-04-11T19:28:55.770Z,41.50
2019-04-11T19:33:00.555Z,41.90
2019-04-11T19:37:04.729Z,42.50
2019-04-11T19:41:07.997Z,42.70
2019-04-11T19:45:11.151Z,42.90
2019-04-11T19:49:14.285Z,43.00
2019-04-11T19:53:17.361Z,43.10
2019-04-11T19:57:20.685Z,44.10
2019-04-11T20:01:23.866Z,44.00
2019-04-11T20:05:27.219Z,44.50
2019-04-11T20:09:30.475Z,44.20
2019-04-11T20:13:34.436Z,44.80
2019-04-11T20:17:44.333Z,44.90
2019-04-11T20:21:43.207Z,45.20
2019-04-11T20:25:49.584Z,45.20
2019-04-11T20:29:55.082Z,44.90
2019-04-11T20:33:56.255Z,45.40
2019-04-11T20:37:59.315Z,45.20
2019-04-11T20:42:02.483Z,45.90
2019-04-11T20:46:05.561Z,45.70
2019-04-11T20:50:09.876Z,46.30
2019-04-11T20:54:13.418Z,46.20
2019-04-11T20:58:26.755Z,46.20
2019-04-11T21:02:21.448Z,47.00
2019-04-11T21:06:24.811Z,46.60
2019-04-11T21:10:27.877Z,46.80
2019-04-11T21:14:31.080Z,46.80
2019-04-11T21:18:34.264Z,47.20
2019-04-11T21:22:37.396Z,47.20
2019-04-11T21:26:40.547Z,47.30
2019-04-11T21:30:43.770Z,47.70
2019-04-11T21:34:47.218Z,48.30
2019-04-11T21:38:50.354Z,47.80
2019-04-11T21:42:53.775Z,48.00
2019-04-11T21:46:56.811Z,48.30
2019-04-11T21:50:59.868Z,48.30
2019-04-11T21:55:04.153Z,48.70
2019-04-11T21:59:07.185Z,48.50
2019-04-11T22:03:10.348Z,48.90
2019-04-11T22:07:13.693Z,48.60
2019-04-11T22:11:16.857Z,48.60
2019-04-11T22:15:20.030Z,48.80
2019-04-11T22:19:23.183Z,49.20
2019-04-11T22:23:26.253Z,49.00
2019-04-11T22:27:29.578Z,49.40
2019-04-11T22:31:32.947Z,49.60
2019-04-11T22:35:37.221Z,49.60
2019-04-11T22:39:40.342Z,49.20
2019-04-11T22:43:43.432Z,48.80
2019-04-11T22:47:46.483Z,49.00
2019-04-11T22:51:49.550Z,49.20
2019-04-11T22:55:52.654Z,49.20
2019-04-11T22:59:55.712Z,49.40
2019-04-11T23:04:00.257Z,49.70
2019-04-11T23:08:03.789Z,48.80
2019-04-11T23:12:06.837Z,49.90
2019-04-11T23:16:12.042Z,49.60
2019-04-11T23:20:15.042Z,49.20
2019-04-11T23:24:18.206Z,49.20
2019-04-11T23:28:21.272Z,49.30
2019-04-11T23:32:24.471Z,49.80
2019-04-11T23:36:27.584Z,49.40
2019-04-11T23:40:30.623Z,49.80
2019-04-11T23:44:33.676Z,49.80
2019-04-11T23:48:36.752Z,49.80
2019-04-11T23:52:40.011Z,50.20
2019-04-11T23:56:43.085Z,50.00
